Schedule Details


Flight Number: CTN4437
Departure: Munich (EDDM) at 08:55
Arrival: Franjo Tudman (LDZA) at 10:05
Route: ROTAX L603 LATLO DCT BERTA DCT ARGOM

Weather Information
EDDM 221550Z 10005KT CAVOK 18/11 Q1012 NOSIG
LDZA 221600Z 21004KT CAVOK 18/12 Q1016 NOSIG
Schedule Frequency

Route Map